sensor_id;sensor_type;location;lat;lon;timestamp;temperature;humidity
46458;DHT22;32155;54.076;12.092;2023-03-04T00:00:07;3.10;99.90
46458;DHT22;32155;54.076;12.092;2023-03-04T00:02:36;3.20;99.90
46458;DHT22;32155;54.076;12.092;2023-03-04T00:05:04;3.10;99.90
46458;DHT22;32155;54.076;12.092;2023-03-04T00:07:30;3.10;99.90
46458;DHT22;32155;54.076;12.092;2023-03-04T00:09:58;3.10;99.90
46458;DHT22;32155;54.076;12.092;2023-03-04T00:12:26;3.10;99.90
46458;DHT22;32155;54.076;12.092;2023-03-04T00:14:51;3.10;99.90
46458;DHT22;32155;54.076;12.092;2023-03-04T00:17:19;3.10;99.90
46458;DHT22;32155;54.076;12.092;2023-03-04T00:19:45;3.20;99.90
46458;DHT22;32155;54.076;12.092;2023-03-04T00:22:11;3.10;99.90
46458;DHT22;32155;54.076;12.092;2023-03-04T00:24:36;3.20;99.90
46458;DHT22;32155;54.076;12.092;2023-03-04T00:27:02;3.20;99.90
46458;DHT22;32155;54.076;12.092;2023-03-04T00:29:28;3.20;99.90
46458;DHT22;32155;54.076;12.092;2023-03-04T00:31:55;3.20;99.90
46458;DHT22;32155;54.076;12.092;2023-03-04T00:34:23;3.40;99.90
46458;DHT22;32155;54.076;12.092;2023-03-04T00:36:49;3.30;99.90
46458;DHT22;32155;54.076;12.092;2023-03-04T00:39:15;3.20;99.90
46458;DHT22;32155;54.076;12.092;2023-03-04T00:41:40;3.30;99.90
46458;DHT22;32155;54.076;12.092;2023-03-04T00:44:06;3.20;99.90
46458;DHT22;32155;54.076;12.092;2023-03-04T00:46:38;3.30;99.90
46458;DHT22;32155;54.076;12.092;2023-03-04T00:49:04;3.30;99.90
46458;DHT22;32155;54.076;12.092;2023-03-04T00:51:29;3.40;99.90
46458;DHT22;32155;54.076;12.092;2023-03-04T00:53:55;3.30;99.90
46458;DHT22;32155;54.076;12.092;2023-03-04T00:56:23;3.40;99.90
46458;DHT22;32155;54.076;12.092;2023-03-04T00:58:48;3.40;99.90
46458;DHT22;32155;54.076;12.092;2023-03-04T01:01:14;3.40;99.90
46458;DHT22;32155;54.076;12.092;2023-03-04T01:03:40;3.50;99.90
46458;DHT22;32155;54.076;12.092;2023-03-04T01:06:07;3.60;99.90
46458;DHT22;32155;54.076;12.092;2023-03-04T01:08:33;3.70;99.90
46458;DHT22;32155;54.076;12.092;2023-03-04T01:11:00;3.80;99.90
46458;DHT22;32155;54.076;12.092;2023-03-04T01:13:28;4.00;99.90
46458;DHT22;32155;54.076;12.092;2023-03-04T01:15:56;4.00;99.90
46458;DHT22;32155;54.076;12.092;2023-03-04T01:18:24;4.10;99.90
46458;DHT22;32155;54.076;12.092;2023-03-04T01:20:52;4.20;99.90
46458;DHT22;32155;54.076;12.092;2023-03-04T01:23:21;4.20;99.90
46458;DHT22;32155;54.076;12.092;2023-03-04T01:25:49;4.30;99.90
46458;DHT22;32155;54.076;12.092;2023-03-04T01:28:14;4.30;99.90
46458;DHT22;32155;54.076;12.092;2023-03-04T01:30:40;4.30;99.90
46458;DHT22;32155;54.076;12.092;2023-03-04T01:33:06;4.40;99.90
46458;DHT22;32155;54.076;12.092;2023-03-04T01:35:32;4.40;99.90
46458;DHT22;32155;54.076;12.092;2023-03-04T01:37:57;4.40;99.90
46458;DHT22;32155;54.076;12.092;2023-03-04T01:40:23;4.50;99.90
46458;DHT22;32155;54.076;12.092;2023-03-04T01:42:49;4.50;99.90
46458;DHT22;32155;54.076;12.092;2023-03-04T01:45:17;4.60;99.90
46458;DHT22;32155;54.076;12.092;2023-03-04T01:47:45;4.70;99.90
46458;DHT22;32155;54.076;12.092;2023-03-04T01:50:21;4.80;99.90
46458;DHT22;32155;54.076;12.092;2023-03-04T01:52:47;4.70;99.90
46458;DHT22;32155;54.076;12.092;2023-03-04T01:55:18;4.80;99.90
46458;DHT22;32155;54.076;12.092;2023-03-04T01:57:48;4.80;99.90
46458;DHT22;32155;54.076;12.092;2023-03-04T02:02:47;4.90;99.90
46458;DHT22;32155;54.076;12.092;2023-03-04T02:05:14;4.90;99.90
46458;DHT22;32155;54.076;12.092;2023-03-04T11:16:35;14.00;99.90
46458;DHT22;32155;54.076;12.092;2023-03-04T11:19:05;17.00;99.90
46458;DHT22;32155;54.076;12.092;2023-03-04T11:21:38;16.00;99.90
46458;DHT22;32155;54.076;12.092;2023-03-04T11:24:07;14.60;99.90
46458;DHT22;32155;54.076;12.092;2023-03-04T11:29:13;12.70;99.90
46458;DHT22;32155;54.076;12.092;2023-03-04T11:31:56;11.80;99.90
46458;DHT22;32155;54.076;12.092;2023-03-04T11:34:37;11.70;99.90
46458;DHT22;32155;54.076;12.092;2023-03-04T11:40:22;10.60;99.90
46458;DHT22;32155;54.076;12.092;2023-03-04T11:42:57;10.60;99.90
46458;DHT22;32155;54.076;12.092;2023-03-04T11:46:05;10.30;99.90
46458;DHT22;32155;54.076;12.092;2023-03-04T11:48:50;9.60;99.90
46458;DHT22;32155;54.076;12.092;2023-03-04T11:51:56;9.50;99.90
46458;DHT22;32155;54.076;12.092;2023-03-04T11:57:12;9.40;99.90
46458;DHT22;32155;54.076;12.092;2023-03-04T11:59:54;9.40;99.90
46458;DHT22;32155;54.076;12.092;2023-03-04T12:05:47;9.00;99.90
46458;DHT22;32155;54.076;12.092;2023-03-04T12:11:06;9.90;99.90
46458;DHT22;32155;54.076;12.092;2023-03-04T12:22:27;10.20;99.90
46458;DHT22;32155;54.076;12.092;2023-03-04T12:44:20;10.20;99.90
46458;DHT22;32155;54.076;12.092;2023-03-04T12:54:59;8.40;99.90
46458;DHT22;32155;54.076;12.092;2023-03-04T12:57:28;8.50;99.90
46458;DHT22;32155;54.076;12.092;2023-03-04T13:00:21;8.50;99.90
46458;DHT22;32155;54.076;12.092;2023-03-04T13:02:54;8.60;99.90
46458;DHT22;32155;54.076;12.092;2023-03-04T13:05:56;11.30;99.90
46458;DHT22;32155;54.076;12.092;2023-03-04T13:14:33;11.30;99.90
46458;DHT22;32155;54.076;12.092;2023-03-04T13:16:58;11.60;99.90
46458;DHT22;32155;54.076;12.092;2023-03-04T13:19:51;16.00;99.90
46458;DHT22;32155;54.076;12.092;2023-03-04T13:22:43;20.00;97.30
46458;DHT22;32155;54.076;12.092;2023-03-04T13:28:31;24.30;64.30
46458;DHT22;32155;54.076;12.092;2023-03-04T13:51:28;28.80;38.80
46458;DHT22;32155;54.076;12.092;2023-03-04T13:56:36;26.10;40.40
46458;DHT22;32155;54.076;12.092;2023-03-04T14:02:17;23.60;45.00
46458;DHT22;32155;54.076;12.092;2023-03-04T14:07:32;25.50;42.10
46458;DHT22;32155;54.076;12.092;2023-03-04T14:10:28;24.80;43.50
46458;DHT22;32155;54.076;12.092;2023-03-04T14:12:57;24.50;43.00
46458;DHT22;32155;54.076;12.092;2023-03-04T14:15:25;22.60;44.80
46458;DHT22;32155;54.076;12.092;2023-03-04T14:17:59;19.40;48.60
46458;DHT22;32155;54.076;12.092;2023-03-04T14:20:30;18.20;49.80
46458;DHT22;32155;54.076;12.092;2023-03-04T14:23:01;19.10;49.50
46458;DHT22;32155;54.076;12.092;2023-03-04T14:25:32;17.90;52.60
46458;DHT22;32155;54.076;12.092;2023-03-04T14:28:16;19.00;50.80
46458;DHT22;32155;54.076;12.092;2023-03-04T14:30:51;20.10;49.40
46458;DHT22;32155;54.076;12.092;2023-03-04T14:33:20;20.50;48.80
46458;DHT22;32155;54.076;12.092;2023-03-04T14:35:48;20.50;47.90
46458;DHT22;32155;54.076;12.092;2023-03-04T14:38:27;21.20;47.60
46458;DHT22;32155;54.076;12.092;2023-03-04T14:43:23;21.10;46.50
46458;DHT22;32155;54.076;12.092;2023-03-04T14:45:54;21.60;46.20
46458;DHT22;32155;54.076;12.092;2023-03-04T14:48:26;21.60;45.70
46458;DHT22;32155;54.076;12.092;2023-03-04T14:50:54;21.40;47.20
46458;DHT22;32155;54.076;12.092;2023-03-04T14:53:22;20.90;46.90
46458;DHT22;32155;54.076;12.092;2023-03-04T14:56:00;20.30;48.90
46458;DHT22;32155;54.076;12.092;2023-03-04T14:58:37;20.40;49.00
46458;DHT22;32155;54.076;12.092;2023-03-04T15:01:16;19.50;48.30
46458;DHT22;32155;54.076;12.092;2023-03-04T15:04:08;18.80;51.70
46458;DHT22;32155;54.076;12.092;2023-03-04T15:06:46;18.80;50.20
46458;DHT22;32155;54.076;12.092;2023-03-04T15:09:17;19.00;48.80
46458;DHT22;32155;54.076;12.092;2023-03-04T15:14:46;18.10;49.20
46458;DHT22;32155;54.076;12.092;2023-03-04T15:17:40;17.10;50.60
46458;DHT22;32155;54.076;12.092;2023-03-04T15:25:13;15.40;53.40
46458;DHT22;32155;54.076;12.092;2023-03-04T15:27:40;14.30;55.20
46458;DHT22;32155;54.076;12.092;2023-03-04T15:32:42;12.70;58.40
46458;DHT22;32155;54.076;12.092;2023-03-04T15:35:15;11.70;60.10
46458;DHT22;32155;54.076;12.092;2023-03-04T15:37:44;11.20;62.50
46458;DHT22;32155;54.076;12.092;2023-03-04T15:42:43;10.10;66.30
46458;DHT22;32155;54.076;12.092;2023-03-04T15:45:33;9.50;67.10
46458;DHT22;32155;54.076;12.092;2023-03-04T15:48:15;9.00;69.80
46458;DHT22;32155;54.076;12.092;2023-03-04T15:51:16;8.50;70.10
46458;DHT22;32155;54.076;12.092;2023-03-04T15:53:43;8.10;72.40
46458;DHT22;32155;54.076;12.092;2023-03-04T15:56:16;7.60;71.90
46458;DHT22;32155;54.076;12.092;2023-03-04T15:58:51;7.40;73.80
46458;DHT22;32155;54.076;12.092;2023-03-04T16:01:18;7.20;75.10
46458;DHT22;32155;54.076;12.092;2023-03-04T16:03:43;6.80;76.40
46458;DHT22;32155;54.076;12.092;2023-03-04T16:06:15;6.70;77.80
46458;DHT22;32155;54.076;12.092;2023-03-04T16:08:46;6.70;77.60
46458;DHT22;32155;54.076;12.092;2023-03-04T16:11:20;6.60;79.60
46458;DHT22;32155;54.076;12.092;2023-03-04T16:13:46;6.70;80.60
46458;DHT22;32155;54.076;12.092;2023-03-04T16:16:13;6.60;82.10
46458;DHT22;32155;54.076;12.092;2023-03-04T16:18:41;6.60;82.40
46458;DHT22;32155;54.076;12.092;2023-03-04T16:21:12;6.50;83.30
46458;DHT22;32155;54.076;12.092;2023-03-04T16:23:41;6.50;84.50
46458;DHT22;32155;54.076;12.092;2023-03-04T16:26:16;6.50;84.70
46458;DHT22;32155;54.076;12.092;2023-03-04T16:28:42;6.50;85.20
46458;DHT22;32155;54.076;12.092;2023-03-04T16:31:10;6.40;85.40
46458;DHT22;32155;54.076;12.092;2023-03-04T16:33:36;6.40;87.70
46458;DHT22;32155;54.076;12.092;2023-03-04T16:36:02;6.40;89.10
46458;DHT22;32155;54.076;12.092;2023-03-04T16:38:31;6.40;90.30
46458;DHT22;32155;54.076;12.092;2023-03-04T16:40:58;6.20;91.20
46458;DHT22;32155;54.076;12.092;2023-03-04T16:43:26;6.10;93.20
46458;DHT22;32155;54.076;12.092;2023-03-04T16:45:55;6.10;94.00
46458;DHT22;32155;54.076;12.092;2023-03-04T16:48:21;6.00;94.90
46458;DHT22;32155;54.076;12.092;2023-03-04T16:50:46;6.00;96.00
46458;DHT22;32155;54.076;12.092;2023-03-04T16:53:35;6.00;97.30
46458;DHT22;32155;54.076;12.092;2023-03-04T16:56:09;5.80;99.00
46458;DHT22;32155;54.076;12.092;2023-03-04T16:58:36;5.70;99.20
46458;DHT22;32155;54.076;12.092;2023-03-04T17:01:02;5.80;99.80
46458;DHT22;32155;54.076;12.092;2023-03-04T17:03:28;5.60;99.90
46458;DHT22;32155;54.076;12.092;2023-03-04T17:05:54;5.50;99.90
46458;DHT22;32155;54.076;12.092;2023-03-04T17:08:20;5.50;99.90
46458;DHT22;32155;54.076;12.092;2023-03-04T17:10:48;5.40;99.90
46458;DHT22;32155;54.076;12.092;2023-03-04T17:13:17;5.40;99.90
46458;DHT22;32155;54.076;12.092;2023-03-04T17:15:42;5.30;99.90
46458;DHT22;32155;54.076;12.092;2023-03-04T17:18:11;5.30;99.90
46458;DHT22;32155;54.076;12.092;2023-03-04T17:20:37;5.30;99.90
46458;DHT22;32155;54.076;12.092;2023-03-04T17:23:03;5.30;99.90
46458;DHT22;32155;54.076;12.092;2023-03-04T17:25:31;5.30;99.90
46458;DHT22;32155;54.076;12.092;2023-03-04T17:27:59;5.30;99.90
46458;DHT22;32155;54.076;12.092;2023-03-04T17:30:25;5.20;99.90
46458;DHT22;32155;54.076;12.092;2023-03-04T17:32:53;5.10;99.90
